Terminal Aerodrome Forecast
Issued by NWS

Home | Current Version | Previous Version | Text Only | Print | Product List | Glossary On
Versions: 1 2 3 4 5 6 7 8 9 10 11 12 13 14 15 16 17 18 19 20 21 22
000
FTAK31 PAJN 191426 AAB
TAFAKT
TAF AMD
PAKT 191426Z 1914/2012 13008KT 3SM -RA BKN009 OVC025
      TEMPO 1914/1917 1 1/2SM -RA BR BKN005
     FM191700 24004KT 4SM -SHRA BR SCT007 BKN015 OVC025
     FM192200 27004KT P6SM VCSH SCT015 BKN025 OVC040
      AMD LTD TO CLD VIS AND WIND 1914/1915=

USA.gov is the U.S. government's official web portal to all federal, state and local government web resources and services.